Time;durP1;ratioP1;P1;durP2;ratioP2;P2;SDS_P1;SDS_P2;PMS_P1;PMS_P2;Temp;Humidity;BMP_temperature;BMP_pressure;BME280_temperature;BME280_humidity;BME280_pressure;Samples;Min_cycle;Max_cycle;Signal;HPM_P1;HPM_P2
2024/01/26 00:02:32;;;;;;;13.10;10.30;;;;;;;13.32;49.85;100928.72;10451416;28;20258;-36
2024/01/26 00:07:34;;;;;;;13.00;10.43;;;;;;;12.27;52.23;100935.75;10436488;28;20293;-35
2024/01/26 00:12:36;;;;;;;12.43;10.70;;;;;;;13.03;50.92;100893.34;10443123;28;20236;-36
2024/01/26 00:17:38;;;;;;;13.07;11.67;;;;;;;11.70;52.29;101075.09;10443689;28;20236;-35
2024/01/26 00:22:40;;;;;;;13.30;11.53;;;;;;;11.55;54.05;100938.94;10454333;28;20255;-35
2024/01/26 00:27:42;;;;;;;14.73;11.13;;;;;;;12.52;50.99;100973.38;10444031;28;20239;-35
2024/01/26 00:32:43;;;;;;;13.03;10.90;;;;;;;12.69;51.23;100926.69;10445189;28;20224;-36
2024/01/26 00:37:46;;;;;;;12.17;10.77;;;;;;;11.19;53.02;101056.19;10445641;28;20258;-35
2024/01/26 00:42:48;;;;;;;14.73;11.17;;;;;;;11.38;53.47;100983.59;10433663;28;20646;-36
2024/01/26 00:47:50;;;;;;;12.70;11.00;;;;;;;11.85;53.95;100845.53;10446896;28;20680;-36
2024/01/26 00:52:52;;;;;;;11.77;10.20;;;;;;;11.46;54.31;100872.91;10441628;28;20224;-35
2024/01/26 00:57:53;;;;;;;13.47;10.93;;;;;;;12.10;52.86;100858.94;10442551;28;20236;-36
2024/01/26 01:02:55;;;;;;;12.63;10.83;;;;;;;10.64;54.59;101017.91;10442736;28;20236;-35
2024/01/26 01:07:57;;;;;;;14.93;11.67;;;;;;;11.74;53.46;100872.66;10442978;28;20240;-35
2024/01/26 01:12:59;;;;;;;12.50;10.53;;;;;;;11.25;54.03;100900.13;10443743;28;20224;-35
2024/01/26 01:18:00;;;;;;;15.03;10.40;;;;;;;11.20;54.26;100899.78;10440911;28;20248;-36
2024/01/26 01:23:03;;;;;;;12.73;10.60;;;;;;;11.70;53.22;100900.81;10440725;28;20236;-35
2024/01/26 01:28:04;;;;;;;13.10;9.93;;;;;;;11.44;53.49;100913.28;10441804;28;20246;-35
2024/01/26 01:33:06;;;;;;;17.50;10.63;;;;;;;12.50;51.37;100841.13;10438544;28;20286;-35
2024/01/26 01:38:08;;;;;;;14.67;11.00;;;;;;;11.33;54.41;100876.06;10418653;28;20248;-35
2024/01/26 01:43:20;;;;;;;14.17;10.87;;;;;;;12.21;51.73;100857.75;10398543;28;20233;-35
2024/01/26 01:48:22;;;;;;;14.10;10.67;;;;;;;11.72;52.46;100944.38;10398941;28;20236;-35
2024/01/26 01:53:24;;;;;;;13.50;9.50;;;;;;;11.70;53.05;100898.13;10399624;28;20240;-35
2024/01/26 01:58:28;;;;;;;13.80;9.90;;;;;;;11.10;53.66;100966.88;10399012;28;20253;-35
2024/01/26 02:03:30;;;;;;;9.83;8.53;;;;;;;12.13;51.14;100928.34;10396031;28;20317;-35
2024/01/26 02:08:32;;;;;;;11.37;8.30;;;;;;;11.26;52.85;100958.94;10393041;28;20240;-36
2024/01/26 02:13:33;;;;;;;14.20;8.70;;;;;;;11.72;52.92;100901.47;10393252;28;20641;-35
2024/01/26 02:18:36;;;;;;;10.03;7.60;;;;;;;12.05;53.04;100835.31;10396998;28;20232;-36
2024/01/26 02:23:41;;;;;;;8.33;6.77;;;;;;;12.54;51.27;100829.88;10386655;28;20584;-35
2024/01/26 02:28:44;;;;;;;9.70;6.80;;;;;;;11.99;52.52;100897.66;10398761;28;20261;-35
2024/01/26 02:33:45;;;;;;;8.73;6.47;;;;;;;12.27;51.23;100862.47;10395248;28;20280;-35
2024/01/26 02:38:47;;;;;;;6.70;5.83;;;;;;;12.34;50.63;100935.91;10412284;28;20248;-35
2024/01/26 02:43:50;;;;;;;6.67;5.97;;;;;;;13.05;50.37;100831.38;10431952;28;20235;-35
2024/01/26 02:48:52;;;;;;;5.67;5.07;;;;;;;11.87;51.69;100972.25;10438157;28;20227;-42
2024/01/26 02:53:54;;;;;;;7.50;5.37;;;;;;;12.88;50.58;100844.03;10439581;28;20243;-35
2024/01/26 02:58:56;;;;;;;5.47;4.80;;;;;;;12.77;49.78;100946.47;10435531;28;20326;-35
2024/01/26 03:03:59;;;;;;;5.13;4.40;;;;;;;12.72;50.88;100878.00;10434655;28;20247;-35
2024/01/26 03:09:02;;;;;;;5.07;4.27;;;;;;;11.58;52.66;100986.88;10436095;28;20612;-36
2024/01/26 03:14:08;;;;;;;4.93;3.93;;;;;;;12.24;50.97;100940.63;10433837;28;20239;-35
2024/01/26 03:19:10;;;;;;;5.03;4.30;;;;;;;12.04;50.79;101017.88;10432309;28;20598;-35
2024/01/26 03:24:12;;;;;;;4.20;3.80;;;;;;;11.39;52.83;100939.72;10435706;28;20242;-35
2024/01/26 03:29:14;;;;;;;3.90;3.60;;;;;;;12.46;50.61;100925.66;10432796;28;20779;-36
2024/01/26 03:34:16;;;;;;;4.03;3.50;;;;;;;11.67;51.38;101027.97;10438932;28;20276;-35
2024/01/26 03:39:18;;;;;;;3.20;2.93;;;;;;;12.21;51.33;100917.63;10430199;28;20240;-35
2024/01/26 03:44:20;;;;;;;3.20;2.90;;;;;;;11.15;53.16;100991.34;10438444;28;20231;-35
2024/01/26 03:49:22;;;;;;;3.10;2.90;;;;;;;10.62;55.45;100888.75;10445941;28;20228;-35
2024/01/26 03:54:23;;;;;;;3.43;3.20;;;;;;;9.85;56.99;100912.53;10444102;28;20243;-35
2024/01/26 03:59:25;;;;;;;2.63;2.43;;;;;;;10.15;56.83;100819.53;10449326;28;20242;-36
2024/01/26 04:04:27;;;;;;;3.97;2.83;;;;;;;10.02;56.47;100918.88;10434035;28;20597;-35
2024/01/26 04:09:29;;;;;;;3.27;2.80;;;;;;;9.77;58.20;100794.84;10446384;28;20224;-35
2024/01/26 04:14:30;;;;;;;3.20;2.90;;;;;;;9.70;57.61;100898.00;10443160;28;20235;-35
2024/01/26 04:19:32;;;;;;;3.50;3.20;;;;;;;10.47;55.70;100898.34;10450129;28;20717;-35
2024/01/26 04:24:34;;;;;;;3.40;3.10;;;;;;;10.86;55.74;100778.28;10456259;28;20362;-35
2024/01/26 04:29:36;;;;;;;3.93;3.30;;;;;;;11.98;53.00;100813.69;10446246;28;20243;-35
2024/01/26 04:34:38;;;;;;;3.67;3.37;;;;;;;11.61;53.62;100897.25;10451314;28;20239;-35
2024/01/26 04:39:41;;;;;;;3.30;3.00;;;;;;;11.18;55.10;100805.34;10448996;28;20239;-35
2024/01/26 04:44:43;;;;;;;5.53;3.20;;;;;;;10.89;54.51;100925.25;10439730;28;20275;-36
2024/01/26 04:49:45;;;;;;;3.77;3.47;;;;;;;11.23;54.12;100897.63;10448505;28;20294;-35
2024/01/26 04:54:48;;;;;;;3.90;3.03;;;;;;;10.11;55.66;100962.63;10440373;28;20418;-36
2024/01/26 04:59:50;;;;;;;3.50;3.20;;;;;;;11.13;55.87;100762.97;10439080;28;20249;-35
2024/01/26 05:04:51;;;;;;;4.70;3.57;;;;;;;10.29;55.83;100909.09;10439181;28;20682;-35
2024/01/26 05:09:53;;;;;;;3.37;3.07;;;;;;;9.93;57.23;100819.03;10443199;28;20363;-35
2024/01/26 05:14:54;;;;;;;3.60;3.30;;;;;;;10.76;55.84;100784.78;10427149;28;20757;-35
2024/01/26 05:19:56;;;;;;;6.00;3.93;;;;;;;12.19;52.39;100780.94;10444018;28;20207;-35
2024/01/26 05:24:58;;;;;;;5.93;3.60;;;;;;;11.39;53.20;100872.72;10432557;28;20402;-36
2024/01/26 05:30:00;;;;;;;3.77;3.43;;;;;;;11.28;53.34;100901.66;10448754;28;20343;-35
2024/01/26 05:35:02;;;;;;;4.73;3.50;;;;;;;9.08;57.80;100943.16;10437964;28;20259;-35
2024/01/26 05:40:06;;;;;;;3.70;3.40;;;;;;;10.41;55.39;100861.50;10401785;28;20240;-35
2024/01/26 05:45:08;;;;;;;4.80;3.30;;;;;;;11.38;53.81;100814.78;10398165;28;20612;-35
2024/01/26 05:50:11;;;;;;;4.60;3.60;;;;;;;11.02;53.46;100900.72;10404280;28;20322;-35
2024/01/26 05:55:16;;;;;;;3.83;3.53;;;;;;;11.17;52.92;100929.56;10400071;28;20740;-36
2024/01/26 06:00:18;;;;;;;3.93;3.53;;;;;;;11.97;52.78;100825.41;10396830;28;20307;-35
2024/01/26 06:05:20;;;;;;;3.93;3.47;;;;;;;11.56;52.82;100913.00;10403177;28;20232;-36
2024/01/26 06:10:22;;;;;;;5.03;3.27;;;;;;;12.14;51.62;100912.09;10398673;28;20236;-35
2024/01/26 06:15:24;;;;;;;3.90;3.50;;;;;;;11.31;52.68;100962.97;10383689;28;20236;-35
2024/01/26 06:20:30;;;;;;;5.27;3.27;;;;;;;11.78;51.89;100928.47;10407752;28;20229;-35
2024/01/26 06:25:33;;;;;;;7.07;3.47;;;;;;;11.39;52.93;100946.94;10400263;28;20251;-35
2024/01/26 06:30:34;;;;;;;4.83;3.60;;;;;;;11.76;52.49;100914.41;10398257;28;20236;-36
2024/01/26 06:35:36;;;;;;;4.93;3.63;;;;;;;11.77;52.31;100918.75;10402140;28;20289;-36
2024/01/26 06:40:39;;;;;;;4.00;3.60;;;;;;;11.82;52.04;100915.56;10397844;28;20620;-36
2024/01/26 06:45:41;;;;;;;4.40;3.93;;;;;;;11.05;54.08;100916.47;10401660;28;20617;-36
2024/01/26 06:50:42;;;;;;;3.83;3.30;;;;;;;10.39;54.68;100973.22;10402646;28;20318;-36
2024/01/26 06:55:45;;;;;;;5.30;3.90;;;;;;;11.58;53.20;100846.66;10400813;28;20229;-36
2024/01/26 07:00:47;;;;;;;3.40;3.10;;;;;;;11.21;53.33;100888.09;10401392;28;20256;-36
2024/01/26 07:05:50;;;;;;;3.60;3.27;;;;;;;11.40;52.18;100959.31;10386194;28;20592;-36
2024/01/26 07:10:52;;;;;;;3.40;3.10;;;;;;;12.59;50.81;100836.56;10401524;28;20466;-36
2024/01/26 07:15:53;;;;;;;3.10;2.90;;;;;;;11.39;52.73;100925.50;10398164;28;20706;-36
2024/01/26 07:20:55;;;;;;;4.93;3.87;;;;;;;11.26;53.46;100891.94;10385835;28;20323;-36
2024/01/26 07:25:57;;;;;;;3.73;3.40;;;;;;;10.74;53.42;100958.09;10399134;28;20232;-36
2024/01/26 07:30:59;;;;;;;3.93;3.53;;;;;;;10.88;53.43;100890.59;10408600;28;20235;-36
2024/01/26 07:36:00;;;;;;;4.70;3.30;;;;;;;10.42;55.11;100815.88;10409228;28;20800;-36
2024/01/26 07:41:03;;;;;;;3.30;3.00;;;;;;;9.93;55.04;100893.06;10450488;28;20234;-36
2024/01/26 07:46:05;;;;;;;6.57;3.10;;;;;;;10.56;54.29;100829.66;10447245;28;20322;-36
2024/01/26 07:51:06;;;;;;;3.23;2.93;;;;;;;10.72;53.62;100858.38;10448449;28;20228;-36
2024/01/26 07:56:08;;;;;;;3.03;2.73;;;;;;;10.67;53.39;100897.16;10449828;28;20660;-36
2024/01/26 08:01:13;;;;;;;3.40;2.93;;;;;;;9.56;56.47;100833.38;10454056;28;20557;-36
2024/01/26 08:06:16;;;;;;;5.87;3.10;;;;;;;11.98;51.67;100799.44;10447276;28;20666;-36
2024/01/26 08:11:19;;;;;;;3.87;3.20;;;;;;;11.38;53.03;100761.16;10451021;28;20232;-36
2024/01/26 08:16:21;;;;;;;3.00;2.73;;;;;;;12.10;51.20;100807.97;10449633;28;20341;-36
2024/01/26 08:21:23;;;;;;;4.30;3.60;;;;;;;11.94;51.20;100841.81;10453307;28;20238;-36
2024/01/26 08:26:26;;;;;;;3.93;3.43;;;;;;;10.25;54.19;100913.91;10449273;28;20232;-36
2024/01/26 08:31:29;;;;;;;5.20;3.70;;;;;;;11.19;52.70;100849.91;10448211;28;20570;-36
2024/01/26 08:36:31;;;;;;;4.93;3.73;;;;;;;11.32;52.34;100844.06;10439416;28;20714;-36
2024/01/26 08:41:33;;;;;;;5.33;3.90;;;;;;;10.97;52.46;100918.28;10414036;28;20335;-36
2024/01/26 08:46:34;;;;;;;3.93;3.53;;;;;;;11.24;52.65;100831.50;10400577;28;20744;-36
2024/01/26 08:51:36;;;;;;;3.53;3.23;;;;;;;11.58;52.07;100793.03;10407110;28;20292;-36
2024/01/26 08:56:41;;;;;;;4.13;3.67;;;;;;;11.62;51.97;100795.25;10409923;28;20624;-36
2024/01/26 09:01:43;;;;;;;3.03;2.83;;;;;;;11.98;51.02;100807.47;10400119;28;20572;-36
2024/01/26 09:06:45;;;;;;;3.63;3.33;;;;;;;11.25;51.67;100934.97;10392628;28;20240;-36
2024/01/26 09:11:52;;;;;;;4.03;3.33;;;;;;;11.57;51.91;100815.47;10396477;28;20205;-36
2024/01/26 09:16:54;;;;;;;4.20;3.63;;;;;;;11.66;51.31;100865.47;10394963;28;20793;-36
2024/01/26 09:21:56;;;;;;;3.30;3.00;;;;;;;11.74;51.79;100803.81;10390421;28;20232;-36
2024/01/26 09:26:58;;;;;;;4.40;3.40;;;;;;;11.53;51.54;100886.50;10391469;28;20256;-36
2024/01/26 09:32:00;;;;;;;3.40;3.10;;;;;;;11.27;51.74;100895.44;10389678;28;20409;-36
2024/01/26 09:37:02;;;;;;;4.13;3.10;;;;;;;10.53;52.28;100983.38;10422391;28;20247;-36
2024/01/26 09:42:05;;;;;;;4.67;3.30;;;;;;;10.75;51.91;100955.31;10438768;28;20309;-36
2024/01/26 09:47:10;;;;;;;5.47;2.73;;;;;;;10.95;53.05;100805.97;10429622;28;20327;-36
2024/01/26 09:52:16;;;;;;;3.47;2.97;;;;;;;11.80;50.82;100808.47;10442115;28;20229;-36
2024/01/26 09:57:20;;;;;;;3.80;3.20;;;;;;;11.72;51.73;100764.75;10435358;28;20236;-36
2024/01/26 10:02:22;;;;;;;3.60;2.93;;;;;;;11.62;51.10;100832.78;10440486;28;20763;-36
2024/01/26 10:07:24;;;;;;;3.00;2.80;;;;;;;12.15;50.77;100789.53;10424104;28;20239;-37
2024/01/26 10:12:26;;;;;;;3.67;3.20;;;;;;;12.17;51.09;100800.91;10437973;28;20243;-36
2024/01/26 10:17:28;;;;;;;3.27;2.93;;;;;;;12.36;49.90;100880.22;10442001;28;20702;-36
2024/01/26 10:22:30;;;;;;;3.63;3.07;;;;;;;13.19;48.74;100776.03;10442044;28;20709;-36
2024/01/26 10:27:32;;;;;;;3.87;3.07;;;;;;;12.83;49.84;100787.31;10442169;28;20598;-36
2024/01/26 10:32:38;;;;;;;3.40;3.10;;;;;;;12.53;49.75;100857.72;10438503;28;20235;-36
2024/01/26 10:37:44;;;;;;;4.67;3.13;;;;;;;12.55;49.55;100927.34;10432786;28;20332;-37
2024/01/26 10:42:47;;;;;;;3.37;3.07;;;;;;;12.49;51.10;100834.09;10442849;28;20238;-36
2024/01/26 10:47:49;;;;;;;2.93;2.73;;;;;;;11.67;53.35;100773.28;10443628;28;20235;-36
2024/01/26 10:52:54;;;;;;;3.20;2.90;;;;;;;11.77;53.13;100765.91;10438937;28;20502;-36
2024/01/26 10:58:01;;;;;;;3.47;3.17;;;;;;;11.04;53.59;100839.78;10432510;28;20263;-36
2024/01/26 11:06:22;;;;;;;3.60;3.30;;;;;;;10.70;57.41;100688.03;10558224;27;20756;-70
2024/01/26 11:11:24;;;;;;;3.13;2.90;;;;;;;8.94;59.99;100795.00;10524880;28;20227;-69
2024/01/26 11:16:31;;;;;;;3.43;3.13;;;;;;;10.12;58.03;100736.94;10545848;28;20289;-71
2024/01/26 11:21:46;;;;;;;3.50;3.20;;;;;;;11.00;55.85;100712.56;10541109;28;20233;-70
2024/01/26 11:26:56;;;;;;;3.63;3.10;;;;;;;11.02;55.90;100745.38;10554263;28;20238;-71
2024/01/26 11:31:59;;;;;;;4.30;3.90;;;;;;;11.36;55.52;100714.94;10547914;28;20268;-71
2024/01/26 11:37:13;;;;;;;4.30;3.90;;;;;;;11.05;56.08;100720.09;10522861;28;20784;-71
2024/01/26 11:42:16;;;;;;;4.73;3.80;;;;;;;11.33;55.44;100766.19;10544677;28;20222;-71
2024/01/26 11:47:18;;;;;;;4.17;3.60;;;;;;;11.18;56.37;100707.06;10511375;28;20705;-71
2024/01/26 11:52:21;;;;;;;4.10;3.73;;;;;;;10.23;59.57;100658.28;10525160;28;20227;-71
2024/01/26 11:57:23;;;;;;;4.63;4.23;;;;;;;11.66;55.66;100674.25;10539885;28;20239;-70
2024/01/26 12:02:26;;;;;;;4.23;3.83;;;;;;;10.64;59.15;100656.56;10531667;28;20243;-71
2024/01/26 12:07:28;;;;;;;4.57;3.77;;;;;;;9.81;60.33;100710.66;10501188;28;20227;-71
2024/01/26 12:12:31;;;;;;;4.50;4.10;;;;;;;10.33;59.50;100675.03;10491236;28;20227;-71
2024/01/26 12:17:33;;;;;;;4.13;3.83;;;;;;;9.98;60.17;100703.59;10465387;28;20236;-71
2024/01/26 12:22:36;;;;;;;4.30;3.87;;;;;;;10.53;58.10;100723.78;10461255;28;20271;-71
2024/01/26 12:27:37;;;;;;;5.07;4.53;;;;;;;10.16;59.36;100732.97;10469704;28;20264;-71
2024/01/26 12:32:39;;;;;;;5.00;3.80;;;;;;;9.82;60.54;100690.09;10469829;28;20285;-71
2024/01/26 12:37:44;;;;;;;4.60;4.20;;;;;;;9.87;58.80;100849.09;10455496;28;20242;-70
2024/01/26 12:42:45;;;;;;;4.60;4.10;;;;;;;9.61;61.28;100711.84;10433917;28;20707;-70
2024/01/26 12:47:47;;;;;;;5.73;4.20;;;;;;;10.69;57.83;100728.34;10461225;28;20270;-71
2024/01/26 12:52:49;;;;;;;4.40;3.90;;;;;;;12.27;55.53;100656.66;10458342;28;20262;-77
2024/01/26 12:57:52;;;;;;;5.20;4.37;;;;;;;10.96;56.93;100782.69;10471777;28;20240;-70
2024/01/26 13:02:53;;;;;;;5.13;4.20;;;;;;;11.07;58.48;100635.09;10473184;28;20237;-71
2024/01/26 13:07:55;;;;;;;8.70;4.57;;;;;;;10.56;59.33;100677.13;10465356;28;20228;-70
2024/01/26 13:12:57;;;;;;;6.20;4.57;;;;;;;11.21;57.36;100706.72;10467430;28;20220;-71
2024/01/26 13:17:59;;;;;;;4.43;4.03;;;;;;;11.94;56.04;100709.56;10447758;28;20294;-70
2024/01/26 13:23:01;;;;;;;4.83;4.33;;;;;;;12.13;55.20;100722.63;10465654;28;20270;-68
2024/01/26 13:28:03;;;;;;;5.73;4.53;;;;;;;12.36;54.98;100716.50;10461739;28;20242;-70
2024/01/26 13:33:06;;;;;;;4.60;4.20;;;;;;;10.91;57.77;100819.81;10465394;28;20653;-70
2024/01/26 13:38:08;;;;;;;4.73;3.70;;;;;;;10.82;58.73;100768.91;10459459;28;20744;-69
2024/01/26 13:43:10;;;;;;;4.57;4.17;;;;;;;10.99;57.21;100871.59;10454382;28;20236;-68
2024/01/26 13:48:11;;;;;;;4.40;3.43;;;;;;;10.74;58.18;100865.22;10451225;28;20231;-69
2024/01/26 13:53:14;;;;;;;4.50;4.10;;;;;;;12.73;54.68;100736.50;10456223;28;20231;-70
2024/01/26 13:58:16;;;;;;;4.20;3.80;;;;;;;12.71;54.85;100736.66;10445720;28;20238;-71
2024/01/26 14:03:18;;;;;;;4.40;4.00;;;;;;;10.94;58.83;100752.56;10473417;28;20297;-71
2024/01/26 14:08:20;;;;;;;4.27;3.67;;;;;;;11.37;58.67;100727.34;10446127;28;20261;-69
2024/01/26 14:13:22;;;;;;;3.90;3.53;;;;;;;12.37;56.10;100761.13;10460192;28;20228;-72
2024/01/26 14:18:25;;;;;;;5.13;3.40;;;;;;;12.11;55.89;100810.47;10440616;28;20224;-70
2024/01/26 14:23:27;;;;;;;4.27;3.87;;;;;;;12.45;55.87;100790.63;10477077;28;20238;-68
2024/01/26 14:28:29;;;;;;;3.83;3.40;;;;;;;12.34;54.21;100911.75;10487306;28;20242;-70
2024/01/26 14:33:30;;;;;;;3.77;3.47;;;;;;;12.87;54.80;100785.94;10491831;28;20270;-70
2024/01/26 14:38:32;;;;;;;3.83;3.53;;;;;;;12.18;55.92;100858.91;10487517;28;20241;-71
2024/01/26 14:43:34;;;;;;;4.93;3.60;;;;;;;12.17;56.81;100784.81;10469441;28;20235;-71
2024/01/26 14:48:38;;;;;;;3.53;3.20;;;;;;;12.37;55.93;100849.69;10477290;28;20247;-71
2024/01/26 14:53:41;;;;;;;3.93;3.53;;;;;;;12.86;54.83;100862.19;10468066;28;20319;-71
2024/01/26 14:58:43;;;;;;;4.47;3.77;;;;;;;12.64;55.92;100863.75;10470059;28;20231;-71
2024/01/26 15:03:44;;;;;;;3.50;3.27;;;;;;;12.63;55.37;100905.03;10477510;28;20641;-71
2024/01/26 15:08:46;;;;;;;3.47;3.17;;;;;;;13.25;53.82;100907.03;10504797;28;20321;-71
2024/01/26 15:13:48;;;;;;;3.97;3.20;;;;;;;12.99;54.10;100921.59;10501655;28;20312;-72
2024/01/26 15:18:51;;;;;;;3.00;2.80;;;;;;;13.60;52.33;100954.13;10504456;28;20261;-71
2024/01/26 15:23:53;;;;;;;3.30;3.10;;;;;;;12.61;54.19;101019.84;10514828;28;20264;-72
2024/01/26 15:28:55;;;;;;;2.53;2.33;;;;;;;13.82;51.90;100927.44;10512787;28;20234;-72
2024/01/26 15:33:57;;;;;;;2.50;2.30;;;;;;;12.79;53.44;101039.31;10506030;28;20226;-70
2024/01/26 15:38:59;;;;;;;3.00;2.70;;;;;;;12.66;53.82;101031.75;10505098;28;20230;-71
2024/01/26 15:44:01;;;;;;;2.73;2.53;;;;;;;12.65;53.47;101029.22;10507997;28;20249;-70
2024/01/26 15:49:02;;;;;;;2.83;2.63;;;;;;;12.93;52.66;101019.81;10505952;28;20709;-73
2024/01/26 15:54:04;;;;;;;2.30;2.10;;;;;;;11.14;54.64;101125.47;10520961;28;20308;-71
2024/01/26 15:59:06;;;;;;;2.57;2.37;;;;;;;11.55;52.89;101094.41;10518228;28;20697;-70
2024/01/26 16:04:08;;;;;;;2.50;2.40;;;;;;;11.71;52.29;101101.75;10536792;28;20772;-71
2024/01/26 16:09:12;;;;;;;2.20;2.10;;;;;;;11.39;51.51;101196.19;10558417;27;20242;-70
2024/01/26 16:14:13;;;;;;;4.40;2.10;;;;;;;11.83;50.52;101157.78;10558211;28;20225;-70
2024/01/26 16:19:15;;;;;;;2.13;2.03;;;;;;;12.18;49.09;101224.72;10563256;28;20241;-70
2024/01/26 16:24:17;;;;;;;3.60;2.70;;;;;;;12.57;49.36;101140.16;10554672;28;20226;-69
2024/01/26 16:29:19;;;;;;;2.30;2.10;;;;;;;13.58;46.73;101189.25;10556008;28;20230;-70
2024/01/26 16:34:20;;;;;;;2.67;2.30;;;;;;;12.02;48.00;101216.56;10563388;28;20259;-69
2024/01/26 16:39:22;;;;;;;3.60;2.13;;;;;;;11.05;46.38;101283.47;10412570;23;20616;-36
2024/01/26 16:44:31;;;;;;;3.53;2.03;;;;;;;10.01;45.42;101336.25;10308810;28;20234;-37
2024/01/26 16:49:32;;;;;;;3.00;2.10;;;;;;;12.71;42.39;101235.38;10268159;28;20318;-36
2024/01/26 16:54:35;;;;;;;3.30;2.50;;;;;;;9.96;44.21;101388.31;10308254;23;20253;-35
2024/01/26 16:59:36;;;;;;;3.33;2.80;;;;;;;11.16;43.11;101415.53;10292715;28;20325;-35
2024/01/26 17:04:38;;;;;;;2.53;2.23;;;;;;;10.86;43.50;101347.84;10312276;28;20236;-35
2024/01/26 17:09:40;;;;;;;3.80;2.40;;;;;;;10.47;43.25;101382.75;10308609;28;20317;-35
2024/01/26 17:14:42;;;;;;;4.80;2.63;;;;;;;10.22;42.77;101401.09;10305829;28;20238;-37
2024/01/26 17:19:44;;;;;;;3.30;2.47;;;;;;;10.13;42.64;101423.38;10278886;28;20213;-35
2024/01/26 17:24:46;;;;;;;3.50;2.33;;;;;;;10.40;41.82;101468.13;10270964;28;20716;-35
2024/01/26 17:29:47;;;;;;;3.13;2.20;;;;;;;10.00;41.69;101471.78;10313338;28;20656;-35
2024/01/26 17:34:49;;;;;;;3.33;1.97;;;;;;;10.50;41.21;101409.22;10307805;28;20256;-34
2024/01/26 17:39:52;;;;;;;2.97;2.33;;;;;;;10.71;41.68;101470.59;10316719;28;20207;-35
2024/01/26 17:45:06;;;;;;;2.07;1.87;;;;;;;11.11;41.56;101332.06;10314660;28;20238;-35
2024/01/26 17:50:09;;;;;;;2.50;2.30;;;;;;;10.66;41.98;101432.72;10311719;28;20284;-35
2024/01/26 17:55:11;;;;;;;3.73;2.37;;;;;;;11.34;40.80;101319.06;10310494;28;20723;-35
2024/01/26 18:00:14;;;;;;;4.33;2.53;;;;;;;9.73;40.90;101475.91;10318851;28;20621;-35
2024/01/26 18:05:21;;;;;;;3.33;2.47;;;;;;;9.50;40.56;101475.31;10315319;28;20237;-35
2024/01/26 18:10:23;;;;;;;3.03;2.70;;;;;;;10.55;39.98;101371.34;10313004;28;20214;-35
2024/01/26 18:15:24;;;;;;;2.60;2.40;;;;;;;9.69;40.57;101481.69;10297813;28;20242;-35
2024/01/26 18:20:26;;;;;;;4.50;2.50;;;;;;;9.67;40.71;101459.59;10315697;28;20258;-35
2024/01/26 18:25:28;;;;;;;3.93;2.67;;;;;;;10.67;39.00;101504.84;10313395;28;20261;-36
2024/01/26 18:30:30;;;;;;;3.50;2.60;;;;;;;11.53;38.47;101501.22;10346651;28;20231;-36
2024/01/26 18:35:31;;;;;;;2.70;2.50;;;;;;;9.74;40.66;101479.47;10342353;28;20657;-35
2024/01/26 18:40:33;;;;;;;3.83;2.60;;;;;;;9.72;40.67;101443.97;10304765;28;20238;-35
2024/01/26 18:45:35;;;;;;;6.83;2.60;;;;;;;9.30;40.57;101538.53;10302463;28;20325;-35
2024/01/26 18:50:37;;;;;;;2.80;2.60;;;;;;;9.38;40.98;101509.31;10307393;28;20241;-35
2024/01/26 18:55:39;;;;;;;3.43;2.40;;;;;;;9.29;41.39;101504.75;10305567;28;20232;-35
2024/01/26 19:00:41;;;;;;;3.23;2.73;;;;;;;9.89;40.53;101507.53;10304276;28;20209;-35
2024/01/26 19:05:43;;;;;;;3.87;3.10;;;;;;;11.03;39.27;101434.59;10304954;28;20786;-35
2024/01/26 19:10:45;;;;;;;3.53;2.80;;;;;;;10.89;39.09;101521.63;10314635;28;20225;-35
2024/01/26 19:15:48;;;;;;;3.50;3.07;;;;;;;11.57;38.21;101575.00;10346479;28;20228;-35
2024/01/26 19:20:51;;;;;;;5.60;5.00;;;;;;;11.34;39.01;101553.09;10346334;28;20310;-35
2024/01/26 19:25:52;;;;;;;4.83;4.40;;;;;;;9.51;41.95;101639.19;10350246;28;20237;-36
2024/01/26 19:30:54;;;;;;;3.63;2.70;;;;;;;10.05;40.69;101584.53;10344717;28;20256;-36
2024/01/26 19:35:56;;;;;;;4.13;3.27;;;;;;;9.21;42.23;101515.25;10321956;28;20244;-35
2024/01/26 19:40:58;;;;;;;3.27;2.87;;;;;;;8.90;42.43;101511.72;10352963;28;20220;-35
2024/01/26 19:46:00;;;;;;;3.97;2.70;;;;;;;11.12;39.52;101422.16;10354333;28;20272;-35
2024/01/26 19:51:05;;;;;;;5.83;3.10;;;;;;;10.07;39.89;101595.97;10351336;28;20308;-36
2024/01/26 19:56:07;;;;;;;3.83;3.43;;;;;;;12.24;37.45;101485.41;10338937;28;20197;-35
2024/01/26 20:01:09;;;;;;;3.93;2.83;;;;;;;10.23;39.54;101653.44;10352017;28;20238;-35
2024/01/26 20:06:12;;;;;;;6.17;2.67;;;;;;;10.08;40.26;101565.53;10323355;28;21812;-35
2024/01/26 20:11:15;;;;;;;6.30;2.93;;;;;;;9.36;41.17;101634.16;10322659;28;20240;-34
2024/01/26 20:16:16;;;;;;;3.87;3.50;;;;;;;10.33;40.10;101561.50;10360559;28;20208;-35
2024/01/26 20:21:18;;;;;;;5.30;3.40;;;;;;;10.85;39.58;101499.66;10347296;28;20357;-35
2024/01/26 20:26:21;;;;;;;5.33;3.60;;;;;;;12.23;38.17;101529.34;10330934;28;20239;-36
2024/01/26 20:31:23;;;;;;;4.17;3.67;;;;;;;11.73;39.03;101576.25;10349384;28;20260;-36
2024/01/26 20:36:25;;;;;;;5.13;3.17;;;;;;;9.91;41.08;101631.22;10336086;28;20268;-35
2024/01/26 20:41:27;;;;;;;4.50;3.20;;;;;;;9.29;42.31;101507.44;10322912;28;20656;-35
2024/01/26 20:46:30;;;;;;;4.83;2.90;;;;;;;7.89;44.42;101535.13;10322711;28;20343;-35
2024/01/26 20:51:31;;;;;;;3.57;3.10;;;;;;;9.10;42.91;101355.13;10328041;28;20247;-35
2024/01/26 20:56:34;;;;;;;3.30;3.00;;;;;;;9.19;41.37;101509.22;10346910;28;20236;-35
2024/01/26 21:01:35;;;;;;;7.70;5.13;;;;;;;8.20;42.75;101615.31;10330231;28;20240;-35
2024/01/26 21:06:41;;;;;;;16.73;10.23;;;;;;;9.51;42.93;101359.41;10358157;28;20334;-35
2024/01/26 21:11:43;;;;;;;11.27;7.10;;;;;;;9.73;41.21;101536.56;10351784;28;20275;-35
2024/01/26 21:16:45;;;;;;;6.40;4.07;;;;;;;7.38;44.34;101554.28;10353003;28;20753;-35
2024/01/26 21:21:47;;;;;;;5.50;3.60;;;;;;;8.22;42.98;101402.69;10331916;28;20234;-35
2024/01/26 21:26:49;;;;;;;5.33;3.30;;;;;;;10.43;40.09;101445.59;10327251;28;20333;-35
2024/01/26 21:31:51;;;;;;;8.23;6.13;;;;;;;8.45;42.10;101633.69;10348688;28;20241;-36
2024/01/26 21:36:53;;;;;;;6.50;4.97;;;;;;;11.09;39.83;101425.16;10334229;28;20231;-35
2024/01/26 21:41:55;;;;;;;7.23;4.60;;;;;;;10.65;39.83;101497.97;10310572;28;20246;-35
2024/01/26 21:46:57;;;;;;;4.47;3.93;;;;;;;10.41;39.63;101447.53;10313285;28;20245;-35
2024/01/26 21:51:59;;;;;;;4.47;3.17;;;;;;;8.89;40.52;101596.31;10313435;28;20688;-36
2024/01/26 21:57:00;;;;;;;4.30;2.80;;;;;;;11.19;38.00;101450.06;10315476;28;20333;-35
2024/01/26 22:02:02;;;;;;;3.87;2.60;;;;;;;11.35;38.60;101500.31;10315398;28;20348;-36
2024/01/26 22:07:04;;;;;;;5.63;3.70;;;;;;;10.46;39.75;101485.44;10326846;28;20241;-36
2024/01/26 22:12:06;;;;;;;5.27;4.00;;;;;;;10.17;39.46;101601.31;10304793;28;20225;-35
2024/01/26 22:17:08;;;;;;;4.07;3.07;;;;;;;10.28;39.00;101560.25;10320343;28;20230;-35
2024/01/26 22:22:10;;;;;;;6.23;3.23;;;;;;;8.59;40.75;101619.22;10318855;28;20288;-36
2024/01/26 22:27:11;;;;;;;4.47;3.20;;;;;;;8.01;41.92;101565.28;10318450;28;20230;-35
2024/01/26 22:32:13;;;;;;;3.93;3.20;;;;;;;9.93;39.76;101412.66;10309933;28;20241;-35
2024/01/26 22:37:15;;;;;;;3.33;2.73;;;;;;;9.71;39.05;101600.03;10312321;28;20221;-36
2024/01/26 22:42:17;;;;;;;4.83;3.27;;;;;;;9.43;39.59;101490.19;10328990;28;20244;-36
2024/01/26 22:47:19;;;;;;;9.20;4.90;;;;;;;7.63;42.01;101679.28;10350160;28;20617;-36
2024/01/26 22:52:21;;;;;;;9.90;6.27;;;;;;;9.25;41.53;101399.16;10349265;28;20356;-36
2024/01/26 22:57:22;;;;;;;5.13;4.40;;;;;;;8.82;41.15;101507.84;10350330;28;20240;-36
2024/01/26 23:02:25;;;;;;;8.00;4.50;;;;;;;9.82;40.27;101434.16;10345486;28;20245;-36
2024/01/26 23:07:27;;;;;;;5.00;4.27;;;;;;;10.01;39.38;101510.91;10348389;28;20954;-36
2024/01/26 23:12:28;;;;;;;5.00;3.57;;;;;;;9.88;39.79;101503.16;10349582;28;20228;-35